Time;durP1;ratioP1;P1;durP2;ratioP2;P2;SDS_P1;SDS_P2;PMS_P1;PMS_P2;Temp;Humidity;BMP_temperature;BMP_pressure;BME280_temperature;BME280_humidity;BME280_pressure;Samples;Min_cycle;Max_cycle;Signal;HPM_P1;HPM_P2
2022/12/25 00:00:40;;;;;;;;;;;;;;;;;;5030656;28;20298;-68
2022/12/25 00:03:06;;;;;;;;;;;;;;;;;;5030420;28;20289;-68
2022/12/25 00:05:31;;;;;;;;;;;;;;;;;;5030652;28;19921;-68
2022/12/25 00:07:57;;;;;;;;;;;;;;;;;;5023927;28;19917;-67
2022/12/25 00:10:23;;;;;;;;;;;;;;;;;;5030386;28;20007;-66
2022/12/25 00:12:49;;;;;;;;;;;;;;;;;;5030480;28;19909;-67
2022/12/25 00:15:15;;;;;;;;;;;;;;;;;;5030544;28;19921;-66
2022/12/25 00:17:41;;;;;;;;;;;;;;;;;;5030648;28;19944;-66
2022/12/25 00:20:07;;;;;;;;;;;;;;;;;;5029798;28;19938;-66
2022/12/25 00:22:33;;;;;;;;;;;;;;;;;;5030457;28;20465;-66
2022/12/25 00:24:59;;;;;;;;;;;;;;;;;;5030657;28;20012;-66
2022/12/25 00:27:24;;;;;;;;;;;;;;;;;;5030140;28;20352;-66
2022/12/25 00:29:50;;;;;;;;;;;;;;;;;;5029976;28;19933;-65
2022/12/25 00:32:16;;;;;;;;;;;;;;;;;;5030248;28;19915;-66
2022/12/25 00:34:42;;;;;;;;;;;;;;;;;;5030012;28;19959;-66
2022/12/25 00:37:08;;;;;;;;;;;;;;;;;;5030630;28;19955;-66
2022/12/25 00:39:34;;;;;;;;;;;;;;;;;;5029910;28;19920;-67
2022/12/25 00:42:18;;;;;;;;;;;;;;;;;;5029840;28;19924;-66
2022/12/25 00:44:44;;;;;;;;;;;;;;;;;;5029933;28;19952;-66
2022/12/25 00:47:10;;;;;;;;;;;;;;;;;;5029927;28;20357;-66
2022/12/25 00:49:36;;;;;;;;;;;;;;;;;;5029673;28;19916;-67
2022/12/25 00:52:02;;;;;;;;;;;;;;;;;;5029738;28;20435;-66
2022/12/25 00:54:28;;;;;;;;;;;;;;;;;;5030382;28;19947;-66
2022/12/25 00:56:53;;;;;;;;;;;;;;;;;;5028234;28;19913;-66
2022/12/25 00:59:19;;;;;;;;;;;;;;;;;;5029756;28;19913;-66
2022/12/25 01:01:45;;;;;;;;;;;;;;;;;;5029947;28;19913;-66
2022/12/25 01:04:11;;;;;;;;;;;;;;;;;;5029192;28;19925;-66
2022/12/25 01:06:37;;;;;;;;;;;;;;;;;;5030019;28;19920;-64
2022/12/25 01:11:47;;;;;;;;;;;;;;;;;;5029859;28;20004;-66
2022/12/25 01:14:13;;;;;;;;;;;;;;;;;;5029532;28;20011;-67
2022/12/25 01:16:39;;;;;;;;;;;;;;;;;;5028182;28;19913;-66
2022/12/25 01:19:05;;;;;;;;;;;;;;;;;;5029092;28;19913;-67
2022/12/25 01:21:31;;;;;;;;;;;;;;;;;;5029823;28;19944;-66
2022/12/25 01:23:57;;;;;;;;;;;;;;;;;;5029345;28;19917;-67
2022/12/25 01:26:23;;;;;;;;;;;;;;;;;;5028724;28;19917;-66
2022/12/25 01:28:49;;;;;;;;;;;;;;;;;;5029813;28;20367;-66
2022/12/25 01:31:14;;;;;;;;;;;;;;;;;;5029268;28;20374;-66
2022/12/25 01:33:40;;;;;;;;;;;;;;;;;;5028745;28;19949;-67
2022/12/25 01:36:06;;;;;;;;;;;;;;;;;;5029626;28;20675;-66
2022/12/25 01:38:32;;;;;;;;;;;;;;;;;;5029100;28;20445;-67
2022/12/25 01:40:58;;;;;;;;;;;;;;;;;;5029209;28;19999;-67
2022/12/25 01:43:24;;;;;;;;;;;;;;;;;;5029166;28;19963;-67
2022/12/25 01:45:51;;;;;;;;;;;;;;;;;;5029695;28;20286;-67
2022/12/25 01:48:17;;;;;;;;;;;;;;;;;;5028644;28;19909;-67
2022/12/25 01:50:43;;;;;;;;;;;;;;;;;;5029256;28;19966;-67
2022/12/25 01:53:09;;;;;;;;;;;;;;;;;;5029080;28;20283;-66
2022/12/25 01:55:35;;;;;;;;;;;;;;;;;;5029261;28;19936;-66
2022/12/25 01:58:00;;;;;;;;;;;;;;;;;;5029170;28;19916;-67
2022/12/25 02:00:26;;;;;;;;;;;;;;;;;;5029086;28;19920;-67
2022/12/25 02:02:52;;;;;;;;;;;;;;;;;;5028589;28;19913;-67
2022/12/25 02:05:18;;;;;;;;;;;;;;;;;;5028858;28;20357;-67
2022/12/25 02:07:44;;;;;;;;;;;;;;;;;;5028594;28;20003;-66
2022/12/25 02:10:10;;;;;;;;;;;;;;;;;;5029087;28;19992;-67
2022/12/25 02:12:36;;;;;;;;;;;;;;;;;;5028127;28;20378;-67
2022/12/25 02:15:02;;;;;;;;;;;;;;;;;;5028224;28;19922;-66
2022/12/25 02:17:28;;;;;;;;;;;;;;;;;;5028275;28;20386;-67
2022/12/25 02:19:53;;;;;;;;;;;;;;;;;;5030279;28;19913;-66
2022/12/25 02:22:19;;;;;;;;;;;;;;;;;;5030596;28;19913;-67
2022/12/25 02:24:45;;;;;;;;;;;;;;;;;;5031896;28;19975;-67
2022/12/25 02:27:11;;;;;;;;;;;;;;;;;;5032162;28;19919;-67
2022/12/25 02:29:38;;;;;;;;;;;;;;;;;;5031886;28;19921;-66
2022/12/25 02:32:03;;;;;;;;;;;;;;;;;;5031785;28;19920;-66
2022/12/25 02:34:29;;;;;;;;;;;;;;;;;;5030438;28;20364;-67
2022/12/25 02:36:55;;;;;;;;;;;;;;;;;;5031899;28;19913;-66
2022/12/25 02:42:06;;;;;;;;;;;;;;;;;;5031912;28;19940;-67
2022/12/25 03:06:42;;;;;;;;;;;;;;;;;;5028727;28;19956;-67
2022/12/25 03:11:53;;;;;;;;;;;;;;;;;;5028007;28;19916;-68
2022/12/25 03:17:03;;;;;;;;;;;;;;;;;;5027881;28;19920;-67
2022/12/25 03:27:42;;;;;;;;;;;;;;;;;;5028141;28;19919;-67
2022/12/25 03:32:57;;;;;;;;;;;;;;;;;;5027899;28;19936;-67
2022/12/25 03:35:23;;;;;;;;;;;;;;;;;;5028297;28;20362;-67
2022/12/25 03:46:56;;;;;;;;;;;;;;;;;;5031024;28;19928;-68
2022/12/25 04:38:25;;;;;;;;;;;;;;;;;;5027673;28;19952;-66
2022/12/25 04:40:51;;;;;;;;;;;;;;;;;;5027317;28;19916;-66
2022/12/25 04:43:17;;;;;;;;;;;;;;;;;;5027099;28;19916;-66
2022/12/25 04:45:43;;;;;;;;;;;;;;;;;;5029737;28;19917;-67
2022/12/25 04:48:09;;;;;;;;;;;;;;;;;;5030384;28;19909;-66
2022/12/25 04:50:35;;;;;;;;;;;;;;;;;;5029515;28;19910;-66
2022/12/25 04:53:00;;;;;;;;;;;;;;;;;;5028111;28;20392;-67
2022/12/25 04:55:26;;;;;;;;;;;;;;;;;;5023135;28;19913;-66
2022/12/25 04:57:52;;;;;;;;;;;;;;;;;;5029346;28;19996;-66
2022/12/25 05:00:18;;;;;;;;;;;;;;;;;;5029515;28;19917;-67
2022/12/25 05:02:44;;;;;;;;;;;;;;;;;;5029522;28;19917;-67
2022/12/25 05:05:10;;;;;;;;;;;;;;;;;;5029137;28;19924;-67
2022/12/25 05:07:36;;;;;;;;;;;;;;;;;;5029678;28;20786;-67
2022/12/25 05:10:02;;;;;;;;;;;;;;;;;;5029352;28;19920;-67
2022/12/25 05:12:28;;;;;;;;;;;;;;;;;;5029040;28;19990;-67
2022/12/25 05:14:53;;;;;;;;;;;;;;;;;;5029279;28;20413;-67
2022/12/25 05:17:19;;;;;;;;;;;;;;;;;;5022749;28;19952;-67
2022/12/25 05:19:45;;;;;;;;;;;;;;;;;;5029489;28;19909;-67
2022/12/25 05:22:11;;;;;;;;;;;;;;;;;;5029604;28;19920;-67
2022/12/25 05:24:37;;;;;;;;;;;;;;;;;;5028676;28;20386;-67
2022/12/25 05:27:03;;;;;;;;;;;;;;;;;;5028956;28;19913;-67
2022/12/25 05:29:29;;;;;;;;;;;;;;;;;;5029433;28;19913;-67
2022/12/25 05:31:55;;;;;;;;;;;;;;;;;;5028894;28;19938;-67
2022/12/25 05:34:21;;;;;;;;;;;;;;;;;;5029188;28;19909;-67
2022/12/25 05:36:46;;;;;;;;;;;;;;;;;;5028854;28;19917;-67
2022/12/25 05:39:12;;;;;;;;;;;;;;;;;;5029121;28;20012;-67
2022/12/25 05:41:38;;;;;;;;;;;;;;;;;;5028497;28;20397;-67
2022/12/25 05:44:04;;;;;;;;;;;;;;;;;;5029128;28;19967;-67
2022/12/25 05:46:30;;;;;;;;;;;;;;;;;;5029584;28;20365;-67
2022/12/25 05:48:56;;;;;;;;;;;;;;;;;;5028726;28;20484;-67
2022/12/25 05:51:22;;;;;;;;;;;;;;;;;;5029061;28;19909;-66
2022/12/25 05:53:48;;;;;;;;;;;;;;;;;;5030357;28;19932;-67
2022/12/25 05:56:13;;;;;;;;;;;;;;;;;;5026303;28;19936;-67
2022/12/25 05:58:39;;;;;;;;;;;;;;;;;;5032537;28;19921;-66
2022/12/25 06:01:05;;;;;;;;;;;;;;;;;;5032907;28;19963;-67
2022/12/25 06:03:31;;;;;;;;;;;;;;;;;;5033382;28;20420;-66
2022/12/25 06:05:57;;;;;;;;;;;;;;;;;;5033024;28;19917;-66
2022/12/25 06:08:23;;;;;;;;;;;;;;;;;;5032222;28;20385;-67
2022/12/25 06:10:49;;;;;;;;;;;;;;;;;;5032347;28;19909;-67
2022/12/25 06:13:15;;;;;;;;;;;;;;;;;;5032695;28;20012;-67
2022/12/25 06:15:41;;;;;;;;;;;;;;;;;;5032463;28;19917;-66
2022/12/25 06:18:06;;;;;;;;;;;;;;;;;;5032480;28;19917;-66
2022/12/25 06:20:32;;;;;;;;;;;;;;;;;;5032355;28;19963;-67
2022/12/25 06:22:58;;;;;;;;;;;;;;;;;;5032086;28;20415;-66
2022/12/25 06:25:24;;;;;;;;;;;;;;;;;;5032130;28;19924;-67
2022/12/25 06:27:50;;;;;;;;;;;;;;;;;;5032920;28;20612;-67
2022/12/25 06:30:16;;;;;;;;;;;;;;;;;;5032191;28;20050;-67
2022/12/25 06:32:42;;;;;;;;;;;;;;;;;;5032330;28;20278;-67
2022/12/25 06:35:08;;;;;;;;;;;;;;;;;;5032096;28;19920;-67
2022/12/25 06:37:33;;;;;;;;;;;;;;;;;;5032212;28;20411;-67
2022/12/25 06:39:59;;;;;;;;;;;;;;;;;;5032416;28;19910;-66
2022/12/25 06:42:25;;;;;;;;;;;;;;;;;;5031845;28;20386;-67
2022/12/25 06:44:52;;;;;;;;;;;;;;;;;;5031814;28;19921;-67
2022/12/25 06:47:18;;;;;;;;;;;;;;;;;;5030533;28;19913;-67
2022/12/25 06:49:43;;;;;;;;;;;;;;;;;;5031932;28;19913;-67
2022/12/25 06:52:09;;;;;;;;;;;;;;;;;;5031500;28;20362;-67
2022/12/25 06:54:35;;;;;;;;;;;;;;;;;;5032048;28;19952;-67
2022/12/25 06:57:01;;;;;;;;;;;;;;;;;;5025686;28;20294;-67
2022/12/25 06:59:27;;;;;;;;;;;;;;;;;;5031625;28;19917;-67
2022/12/25 07:01:53;;;;;;;;;;;;;;;;;;5031332;28;19999;-66
2022/12/25 07:04:19;;;;;;;;;;;;;;;;;;5032409;28;19917;-67
2022/12/25 07:06:45;;;;;;;;;;;;;;;;;;5030682;28;20323;-67
2022/12/25 07:09:10;;;;;;;;;;;;;;;;;;5031419;28;19924;-67
2022/12/25 07:11:36;;;;;;;;;;;;;;;;;;5032112;28;19909;-67
2022/12/25 07:14:02;;;;;;;;;;;;;;;;;;5031492;28;20015;-67
2022/12/25 07:16:28;;;;;;;;;;;;;;;;;;5031905;28;19913;-66
2022/12/25 07:18:54;;;;;;;;;;;;;;;;;;5031453;28;19909;-67
2022/12/25 07:21:20;;;;;;;;;;;;;;;;;;5031066;28;20377;-66
2022/12/25 07:23:46;;;;;;;;;;;;;;;;;;5031577;28;19909;-67
2022/12/25 07:26:12;;;;;;;;;;;;;;;;;;5031930;28;19920;-67
2022/12/25 07:28:37;;;;;;;;;;;;;;;;;;5031664;28;20384;-66
2022/12/25 07:31:03;;;;;;;;;;;;;;;;;;5031319;28;19975;-67
2022/12/25 07:33:29;;;;;;;;;;;;;;;;;;5031598;28;19913;-67
2022/12/25 07:35:55;;;;;;;;;;;;;;;;;;5031089;28;20617;-67
2022/12/25 07:38:21;;;;;;;;;;;;;;;;;;5031231;28;20004;-67
2022/12/25 07:40:47;;;;;;;;;;;;;;;;;;5031073;28;19909;-67
2022/12/25 07:43:13;;;;;;;;;;;;;;;;;;5030903;28;19913;-66
2022/12/25 07:45:39;;;;;;;;;;;;;;;;;;5030857;28;20563;-66
2022/12/25 07:48:05;;;;;;;;;;;;;;;;;;5030973;28;20000;-67
2022/12/25 07:50:31;;;;;;;;;;;;;;;;;;5029741;28;20309;-67
2022/12/25 07:52:56;;;;;;;;;;;;;;;;;;5030743;28;19924;-67
2022/12/25 07:55:22;;;;;;;;;;;;;;;;;;5030573;28;20424;-63
2022/12/25 07:57:48;;;;;;;;;;;;;;;;;;5024187;28;19909;-64
2022/12/25 08:00:14;;;;;;;;;;;;;;;;;;5030900;28;20294;-64
2022/12/25 08:02:40;;;;;;;;;;;;;;;;;;5030891;28;19909;-69
2022/12/25 08:05:06;;;;;;;;;;;;;;;;;;5029863;28;19967;-70
2022/12/25 08:07:32;;;;;;;;;;;;;;;;;;5030547;28;20365;-69
2022/12/25 08:09:58;;;;;;;;;;;;;;;;;;5028486;28;19924;-69
2022/12/25 08:12:24;;;;;;;;;;;;;;;;;;5029899;28;20087;-68
2022/12/25 08:14:49;;;;;;;;;;;;;;;;;;5029263;28;20031;-68
2022/12/25 08:17:15;;;;;;;;;;;;;;;;;;5028294;28;19909;-68
2022/12/25 08:19:41;;;;;;;;;;;;;;;;;;5020634;28;20357;-70
2022/12/25 08:22:07;;;;;;;;;;;;;;;;;;5023127;28;19917;-69
2022/12/25 08:24:33;;;;;;;;;;;;;;;;;;5029963;28;19925;-70
2022/12/25 08:26:59;;;;;;;;;;;;;;;;;;5030233;28;19909;-69
2022/12/25 08:29:27;;;;;;;;;;;;;;;;;;5029771;28;19991;-69
2022/12/25 08:31:53;;;;;;;;;;;;;;;;;;5029397;28;19952;-68
2022/12/25 08:34:19;;;;;;;;;;;;;;;;;;5029320;28;19913;-69
2022/12/25 08:36:45;;;;;;;;;;;;;;;;;;5030013;28;20445;-68
2022/12/25 08:39:11;;;;;;;;;;;;;;;;;;5029724;28;19913;-69
2022/12/25 08:41:37;;;;;;;;;;;;;;;;;;5029871;28;20433;-70
2022/12/25 08:44:03;;;;;;;;;;;;;;;;;;5029422;28;19913;-69
2022/12/25 08:46:29;;;;;;;;;;;;;;;;;;5023086;28;19928;-68
2022/12/25 08:48:55;;;;;;;;;;;;;;;;;;5026452;28;20008;-69
2022/12/25 08:51:21;;;;;;;;;;;;;;;;;;5028212;28;19970;-69
2022/12/25 08:53:47;;;;;;;;;;;;;;;;;;5028667;28;19917;-68
2022/12/25 08:56:13;;;;;;;;;;;;;;;;;;5028282;28;20424;-69
2022/12/25 08:58:39;;;;;;;;;;;;;;;;;;5028691;28;19924;-69
2022/12/25 09:01:05;;;;;;;;;;;;;;;;;;5028081;28;19956;-68
2022/12/25 09:03:31;;;;;;;;;;;;;;;;;;5028497;28;20333;-69
2022/12/25 09:05:57;;;;;;;;;;;;;;;;;;5027669;28;20027;-69
2022/12/25 09:08:22;;;;;;;;;;;;;;;;;;5027889;28;20734;-68
2022/12/25 09:10:48;;;;;;;;;;;;;;;;;;5028358;28;19913;-68
2022/12/25 09:13:14;;;;;;;;;;;;;;;;;;5027801;28;19933;-68
2022/12/25 09:15:40;;;;;;;;;;;;;;;;;;5028527;28;19913;-67
2022/12/25 09:18:06;;;;;;;;;;;;;;;;;;5028241;28;19956;-68
2022/12/25 09:20:32;;;;;;;;;;;;;;;;;;5028116;28;19917;-69
2022/12/25 09:22:58;;;;;;;;;;;;;;;;;;5028393;28;20390;-68
2022/12/25 09:25:24;;;;;;;;;;;;;;;;;;5028152;28;19925;-68
2022/12/25 09:27:50;;;;;;;;;;;;;;;;;;5027925;28;19924;-68
2022/12/25 09:30:15;;;;;;;;;;;;;;;;;;5033855;28;20016;-69
2022/12/25 09:32:41;;;;;;;;;;;;;;;;;;5034966;28;19956;-69
2022/12/25 09:35:07;;;;;;;;;;;;;;;;;;5034560;28;19917;-69
2022/12/25 09:37:33;;;;;;;;;;;;;;;;;;5034776;28;20008;-69
2022/12/25 09:39:59;;;;;;;;;;;;;;;;;;5035246;28;19913;-69
2022/12/25 09:42:25;;;;;;;;;;;;;;;;;;5034520;28;19986;-69
2022/12/25 09:44:51;;;;;;;;;;;;;;;;;;5031222;28;19928;-69
2022/12/25 09:47:17;;;;;;;;;;;;;;;;;;5034176;28;20058;-68
2022/12/25 09:49:43;;;;;;;;;;;;;;;;;;5032365;28;19921;-67
2022/12/25 09:52:08;;;;;;;;;;;;;;;;;;5034983;28;20007;-68
2022/12/25 09:54:34;;;;;;;;;;;;;;;;;;5034439;28;19913;-68
2022/12/25 09:57:00;;;;;;;;;;;;;;;;;;5034260;28;19916;-68
2022/12/25 09:59:26;;;;;;;;;;;;;;;;;;5034582;28;19964;-68
2022/12/25 10:01:52;;;;;;;;;;;;;;;;;;5034423;28;20067;-69
2022/12/25 10:04:18;;;;;;;;;;;;;;;;;;5034695;28;19967;-68
2022/12/25 10:06:44;;;;;;;;;;;;;;;;;;5034669;28;20275;-68
2022/12/25 10:09:10;;;;;;;;;;;;;;;;;;5034194;28;19917;-69
2022/12/25 10:11:36;;;;;;;;;;;;;;;;;;5033707;28;19913;-67
2022/12/25 10:14:01;;;;;;;;;;;;;;;;;;5034087;28;19979;-67
2022/12/25 10:16:27;;;;;;;;;;;;;;;;;;5033430;28;19924;-66
2022/12/25 10:18:53;;;;;;;;;;;;;;;;;;5034815;28;20043;-66
2022/12/25 10:21:19;;;;;;;;;;;;;;;;;;5034569;28;20012;-67
2022/12/25 10:23:45;;;;;;;;;;;;;;;;;;5034524;28;20059;-67
2022/12/25 10:26:11;;;;;;;;;;;;;;;;;;5034148;28;20298;-67
2022/12/25 10:28:37;;;;;;;;;;;;;;;;;;5030798;28;19928;-66
2022/12/25 10:31:03;;;;;;;;;;;;;;;;;;5031292;28;19924;-67
2022/12/25 10:33:29;;;;;;;;;;;;;;;;;;5034691;28;19914;-66
2022/12/25 10:35:55;;;;;;;;;;;;;;;;;;5033923;28;19916;-66
2022/12/25 10:38:21;;;;;;;;;;;;;;;;;;5034467;28;19961;-67
2022/12/25 10:40:47;;;;;;;;;;;;;;;;;;5031368;28;19917;-66
2022/12/25 10:43:13;;;;;;;;;;;;;;;;;;5031443;28;19921;-66
2022/12/25 10:45:38;;;;;;;;;;;;;;;;;;5030792;28;20445;-67
2022/12/25 10:48:04;;;;;;;;;;;;;;;;;;5030728;28;19913;-67
2022/12/25 10:50:32;;;;;;;;;;;;;;;;;;5031024;28;19917;-67
2022/12/25 10:52:58;;;;;;;;;;;;;;;;;;5031217;28;19919;-66
2022/12/25 10:55:24;;;;;;;;;;;;;;;;;;5030708;28;20348;-67
2022/12/25 10:57:50;;;;;;;;;;;;;;;;;;5028603;28;20000;-67
2022/12/25 11:00:16;;;;;;;;;;;;;;;;;;5030413;28;20314;-67
2022/12/25 11:02:41;;;;;;;;;;;;;;;;;;5031371;28;19960;-67
2022/12/25 11:05:07;;;;;;;;;;;;;;;;;;5030740;28;19995;-67
2022/12/25 11:07:33;;;;;;;;;;;;;;;;;;5030959;28;19923;-67
2022/12/25 11:09:59;;;;;;;;;;;;;;;;;;5030447;28;19917;-65
2022/12/25 11:12:25;;;;;;;;;;;;;;;;;;5030633;28;20333;-66
2022/12/25 11:14:51;;;;;;;;;;;;;;;;;;5030154;28;19933;-68
2022/12/25 11:17:17;;;;;;;;;;;;;;;;;;5030550;28;20385;-68
2022/12/25 11:19:43;;;;;;;;;;;;;;;;;;5030465;28;19913;-67
2022/12/25 11:22:09;;;;;;;;;;;;;;;;;;5030619;28;20670;-66
2022/12/25 11:24:35;;;;;;;;;;;;;;;;;;5030400;28;19937;-67
2022/12/25 11:27:00;;;;;;;;;;;;;;;;;;5030439;28;20382;-67
2022/12/25 11:29:26;;;;;;;;;;;;;;;;;;5029974;28;19913;-66
2022/12/25 11:31:52;;;;;;;;;;;;;;;;;;5028573;28;20354;-68
2022/12/25 11:34:18;;;;;;;;;;;;;;;;;;5029967;28;19913;-67
2022/12/25 11:36:44;;;;;;;;;;;;;;;;;;5030182;28;19921;-68
2022/12/25 11:39:10;;;;;;;;;;;;;;;;;;5029794;28;19917;-67
2022/12/25 11:41:36;;;;;;;;;;;;;;;;;;5027643;28;20459;-69
2022/12/25 11:44:03;;;;;;;;;;;;;;;;;;5030043;28;19924;-69
2022/12/25 11:46:29;;;;;;;;;;;;;;;;;;5028944;28;19972;-69
2022/12/25 11:48:55;;;;;;;;;;;;;;;;;;5029869;28;20718;-68
2022/12/25 11:51:21;;;;;;;;;;;;;;;;;;5029983;28;19947;-68
2022/12/25 11:53:47;;;;;;;;;;;;;;;;;;5030219;28;19928;-69
2022/12/25 11:56:13;;;;;;;;;;;;;;;;;;5029673;28;20496;-68
2022/12/25 11:58:39;;;;;;;;;;;;;;;;;;5029651;28;19920;-69
2022/12/25 12:01:05;;;;;;;;;;;;;;;;;;5029698;28;19917;-69
2022/12/25 12:03:30;;;;;;;;;;;;;;;;;;5029196;28;19913;-68
2022/12/25 12:05:56;;;;;;;;;;;;;;;;;;5029111;28;19921;-67
2022/12/25 12:08:22;;;;;;;;;;;;;;;;;;5028995;28;20382;-67
2022/12/25 12:10:48;;;;;;;;;;;;;;;;;;5029483;28;20381;-68
2022/12/25 12:13:14;;;;;;;;;;;;;;;;;;5027768;28;20448;-68
2022/12/25 12:15:40;;;;;;;;;;;;;;;;;;5029294;28;19967;-70
2022/12/25 12:18:06;;;;;;;;;;;;;;;;;;5028973;28;20557;-69
2022/12/25 12:20:32;;;;;;;;;;;;;;;;;;5030357;28;19920;-68
2022/12/25 12:22:58;;;;;;;;;;;;;;;;;;5029444;28;20429;-68
2022/12/25 12:25:24;;;;;;;;;;;;;;;;;;5029071;28;20413;-68
2022/12/25 12:27:49;;;;;;;;;;;;;;;;;;5028924;28;19959;-68
2022/12/25 12:30:15;;;;;;;;;;;;;;;;;;5028855;28;19921;-68
2022/12/25 12:32:41;;;;;;;;;;;;;;;;;;5029512;28;19913;-68
2022/12/25 12:35:07;;;;;;;;;;;;;;;;;;5029092;28;20008;-69
2022/12/25 12:37:33;;;;;;;;;;;;;;;;;;5029188;28;19917;-68
2022/12/25 12:39:59;;;;;;;;;;;;;;;;;;5027896;28;19924;-63
2022/12/25 12:42:25;;;;;;;;;;;;;;;;;;5030882;28;19971;-68
2022/12/25 12:44:51;;;;;;;;;;;;;;;;;;5028524;28;20067;-68
2022/12/25 12:47:17;;;;;;;;;;;;;;;;;;5028468;28;19952;-68
2022/12/25 12:49:43;;;;;;;;;;;;;;;;;;5026175;28;19920;-68
2022/12/25 12:52:08;;;;;;;;;;;;;;;;;;5028929;28;20370;-68
2022/12/25 12:54:34;;;;;;;;;;;;;;;;;;5026921;28;19917;-68
2022/12/25 12:57:00;;;;;;;;;;;;;;;;;;5028430;28;19951;-68
2022/12/25 12:59:26;;;;;;;;;;;;;;;;;;5028932;28;20044;-69
2022/12/25 13:01:52;;;;;;;;;;;;;;;;;;5028363;28;19920;-68
2022/12/25 13:04:18;;;;;;;;;;;;;;;;;;5027831;28;20297;-68
2022/12/25 13:06:44;;;;;;;;;;;;;;;;;;5029071;28;20386;-68
2022/12/25 13:09:10;;;;;;;;;;;;;;;;;;5026872;28;19917;-67
2022/12/25 13:11:37;;;;;;;;;;;;;;;;;;5028531;28;19917;-67
2022/12/25 13:14:03;;;;;;;;;;;;;;;;;;5026098;28;19967;-68
2022/12/25 13:16:30;;;;;;;;;;;;;;;;;;5028385;28;20332;-67
2022/12/25 13:18:56;;;;;;;;;;;;;;;;;;5028434;28;20381;-68
2022/12/25 13:21:22;;;;;;;;;;;;;;;;;;5028197;28;19917;-68
2022/12/25 13:23:48;;;;;;;;;;;;;;;;;;5027730;28;19920;-68
2022/12/25 13:26:14;;;;;;;;;;;;;;;;;;5028005;28;19936;-67
2022/12/25 13:28:40;;;;;;;;;;;;;;;;;;5027940;28;19913;-68
2022/12/25 13:31:06;;;;;;;;;;;;;;;;;;5027850;28;20079;-68
2022/12/25 13:33:32;;;;;;;;;;;;;;;;;;5028842;28;19952;-68
2022/12/25 13:35:58;;;;;;;;;;;;;;;;;;5028049;28;20427;-68
2022/12/25 13:38:24;;;;;;;;;;;;;;;;;;5027465;28;19924;-69
2022/12/25 13:42:04;;;;;;;;;;;;;;;;;;5029277;28;19952;-67
2022/12/25 13:43:35;;;;;;;;;;;;;;;;;;5027917;28;20413;-67
2022/12/25 13:46:01;;;;;;;;;;;;;;;;;;5027900;28;19964;-69
2022/12/25 13:48:27;;;;;;;;;;;;;;;;;;5028435;28;19921;-68
2022/12/25 13:50:53;;;;;;;;;;;;;;;;;;5026936;28;20290;-68
2022/12/25 13:53:19;;;;;;;;;;;;;;;;;;5027424;28;19921;-68
2022/12/25 13:55:45;;;;;;;;;;;;;;;;;;5027832;28;19921;-68
2022/12/25 13:58:11;;;;;;;;;;;;;;;;;;5027829;28;19968;-68
2022/12/25 14:00:36;;;;;;;;;;;;;;;;;;5027680;28;19920;-68
2022/12/25 14:03:02;;;;;;;;;;;;;;;;;;5026396;28;19924;-68
2022/12/25 14:05:28;;;;;;;;;;;;;;;;;;5027404;28;20067;-68
2022/12/25 14:07:54;;;;;;;;;;;;;;;;;;5026931;28;19963;-67
2022/12/25 14:10:20;;;;;;;;;;;;;;;;;;5027750;28;19917;-68
2022/12/25 14:12:48;;;;;;;;;;;;;;;;;;5032304;28;20378;-67
2022/12/25 14:15:14;;;;;;;;;;;;;;;;;;5028161;28;20011;-69
2022/12/25 14:17:40;;;;;;;;;;;;;;;;;;5031681;28;19917;-67
2022/12/25 14:20:06;;;;;;;;;;;;;;;;;;5031087;28;20256;-68
2022/12/25 14:22:33;;;;;;;;;;;;;;;;;;5030980;28;20358;-68
2022/12/25 14:25:00;;;;;;;;;;;;;;;;;;5029113;28;19925;-68
2022/12/25 14:27:26;;;;;;;;;;;;;;;;;;5031304;28;19913;-68
2022/12/25 14:29:52;;;;;;;;;;;;;;;;;;5030855;28;19940;-69
2022/12/25 14:32:17;;;;;;;;;;;;;;;;;;5031236;28;20019;-69
2022/12/25 14:34:45;;;;;;;;;;;;;;;;;;5031282;28;19917;-69
2022/12/25 14:37:11;;;;;;;;;;;;;;;;;;5030264;28;20382;-68
2022/12/25 14:39:36;;;;;;;;;;;;;;;;;;5030723;28;19917;-67
2022/12/25 14:42:02;;;;;;;;;;;;;;;;;;5033008;28;20382;-69
2022/12/25 14:44:28;;;;;;;;;;;;;;;;;;5030116;28;19913;-69
2022/12/25 14:46:54;;;;;;;;;;;;;;;;;;5030754;28;20430;-69
2022/12/25 14:49:20;;;;;;;;;;;;;;;;;;5029971;28;19913;-68
2022/12/25 14:51:46;;;;;;;;;;;;;;;;;;5030763;28;19921;-68
2022/12/25 14:54:12;;;;;;;;;;;;;;;;;;5030946;28;19991;-67
2022/12/25 14:56:38;;;;;;;;;;;;;;;;;;5030645;28;20305;-68
2022/12/25 14:59:08;;;;;;;;;;;;;;;;;;5030179;28;19913;-68
2022/12/25 15:01:34;;;;;;;;;;;;;;;;;;5030567;28;20399;-69
2022/12/25 15:04:00;;;;;;;;;;;;;;;;;;5029553;28;19949;-68
2022/12/25 15:06:26;;;;;;;;;;;;;;;;;;5029963;28;19929;-68
2022/12/25 15:08:51;;;;;;;;;;;;;;;;;;5030454;28;19909;-68
2022/12/25 15:11:17;;;;;;;;;;;;;;;;;;5030325;28;19921;-68
2022/12/25 15:13:43;;;;;;;;;;;;;;;;;;5030352;28;19917;-66
2022/12/25 15:16:11;;;;;;;;;;;;;;;;;;5029544;28;20163;-68
2022/12/25 15:18:37;;;;;;;;;;;;;;;;;;5030280;28;19917;-66
2022/12/25 15:21:03;;;;;;;;;;;;;;;;;;5029435;28;20386;-67
2022/12/25 15:23:29;;;;;;;;;;;;;;;;;;5030113;28;19917;-66
2022/12/25 15:25:55;;;;;;;;;;;;;;;;;;5026872;28;20020;-68
2022/12/25 15:28:21;;;;;;;;;;;;;;;;;;5029620;28;19923;-66
2022/12/25 15:30:48;;;;;;;;;;;;;;;;;;5030682;28;19964;-67
2022/12/25 15:33:14;;;;;;;;;;;;;;;;;;5028989;28;19963;-67
2022/12/25 15:35:40;;;;;;;;;;;;;;;;;;5029749;28;20325;-67
2022/12/25 15:38:06;;;;;;;;;;;;;;;;;;5029883;28;19956;-66
2022/12/25 15:40:32;;;;;;;;;;;;;;;;;;5029370;28;19916;-66
2022/12/25 15:42:58;;;;;;;;;;;;;;;;;;5032370;28;19924;-66
2022/12/25 15:45:24;;;;;;;;;;;;;;;;;;5029641;28;19936;-66
2022/12/25 15:47:49;;;;;;;;;;;;;;;;;;5027878;28;20378;-67
2022/12/25 15:50:15;;;;;;;;;;;;;;;;;;5027608;28;20007;-66
2022/12/25 15:52:41;;;;;;;;;;;;;;;;;;5029372;28;19913;-67
2022/12/25 15:55:07;;;;;;;;;;;;;;;;;;5029638;28;19931;-66
2022/12/25 15:57:34;;;;;;;;;;;;;;;;;;5029393;28;19917;-66
2022/12/25 15:59:59;;;;;;;;;;;;;;;;;;5029621;28;20564;-67
2022/12/25 16:02:26;;;;;;;;;;;;;;;;;;5029351;28;20386;-67
2022/12/25 16:04:53;;;;;;;;;;;;;;;;;;5029321;28;19960;-66
2022/12/25 16:07:19;;;;;;;;;;;;;;;;;;5029027;28;19917;-67
2022/12/25 16:09:45;;;;;;;;;;;;;;;;;;5029102;28;19920;-67
2022/12/25 16:12:11;;;;;;;;;;;;;;;;;;5029285;28;19920;-66
2022/12/25 16:14:37;;;;;;;;;;;;;;;;;;5029162;28;19960;-66
2022/12/25 16:17:03;;;;;;;;;;;;;;;;;;5028824;28;19913;-66
2022/12/25 16:19:29;;;;;;;;;;;;;;;;;;5029004;28;19924;-66
2022/12/25 16:21:55;;;;;;;;;;;;;;;;;;5028078;28;19917;-67
2022/12/25 16:24:21;;;;;;;;;;;;;;;;;;5028963;28;19917;-67
2022/12/25 16:26:47;;;;;;;;;;;;;;;;;;5028694;28;19929;-66
2022/12/25 16:29:13;;;;;;;;;;;;;;;;;;5028509;28;19943;-66
2022/12/25 16:31:39;;;;;;;;;;;;;;;;;;5026704;28;19913;-66
2022/12/25 16:34:05;;;;;;;;;;;;;;;;;;5028923;28;19963;-66
2022/12/25 16:36:30;;;;;;;;;;;;;;;;;;5029769;28;20055;-66
2022/12/25 16:38:56;;;;;;;;;;;;;;;;;;5027556;28;20361;-66
2022/12/25 16:41:22;;;;;;;;;;;;;;;;;;5029052;28;19920;-66
2022/12/25 16:43:48;;;;;;;;;;;;;;;;;;5029097;28;19944;-66
2022/12/25 16:46:14;;;;;;;;;;;;;;;;;;5028480;28;19940;-66
2022/12/25 16:48:40;;;;;;;;;;;;;;;;;;5027313;28;20026;-66
2022/12/25 16:51:06;;;;;;;;;;;;;;;;;;5029375;28;20090;-65
2022/12/25 16:53:32;;;;;;;;;;;;;;;;;;5029546;28;19920;-66
2022/12/25 16:55:58;;;;;;;;;;;;;;;;;;5029384;28;19914;-66
2022/12/25 16:58:24;;;;;;;;;;;;;;;;;;5029516;28;19909;-67
2022/12/25 17:00:50;;;;;;;;;;;;;;;;;;5029269;28;19909;-67
2022/12/25 17:03:16;;;;;;;;;;;;;;;;;;5027556;28;19975;-66
2022/12/25 17:05:42;;;;;;;;;;;;;;;;;;5029199;28;20382;-67
2022/12/25 17:08:08;;;;;;;;;;;;;;;;;;5022777;28;19909;-65
2022/12/25 17:10:33;;;;;;;;;;;;;;;;;;5022404;28;20353;-66
2022/12/25 17:12:59;;;;;;;;;;;;;;;;;;5029073;28;19951;-66
2022/12/25 17:15:25;;;;;;;;;;;;;;;;;;5028896;28;19927;-68
2022/12/25 17:17:51;;;;;;;;;;;;;;;;;;5028971;28;19910;-67
2022/12/25 17:20:17;;;;;;;;;;;;;;;;;;5029128;28;19913;-67
2022/12/25 17:22:43;;;;;;;;;;;;;;;;;;5029880;28;19910;-66
2022/12/25 17:25:09;;;;;;;;;;;;;;;;;;5028724;28;19913;-67
2022/12/25 17:27:35;;;;;;;;;;;;;;;;;;5029298;28;19913;-67
2022/12/25 17:30:01;;;;;;;;;;;;;;;;;;5028689;28;20406;-67
2022/12/25 17:32:27;;;;;;;;;;;;;;;;;;5028359;28;19913;-67
2022/12/25 17:34:53;;;;;;;;;;;;;;;;;;5028636;28;20306;-67
2022/12/25 17:37:19;;;;;;;;;;;;;;;;;;5028825;28;19909;-67
2022/12/25 17:39:44;;;;;;;;;;;;;;;;;;5028709;28;19917;-66
2022/12/25 17:42:10;;;;;;;;;;;;;;;;;;5029087;28;19913;-66
2022/12/25 17:44:36;;;;;;;;;;;;;;;;;;5028229;28;20484;-66
2022/12/25 17:47:02;;;;;;;;;;;;;;;;;;5028297;28;19971;-67
2022/12/25 17:49:28;;;;;;;;;;;;;;;;;;5029649;28;19928;-67
2022/12/25 17:51:54;;;;;;;;;;;;;;;;;;5032798;28;20007;-67
2022/12/25 17:54:20;;;;;;;;;;;;;;;;;;5032303;28;19909;-68
2022/12/25 17:56:46;;;;;;;;;;;;;;;;;;5032883;28;19913;-67
2022/12/25 17:59:16;;;;;;;;;;;;;;;;;;5031209;28;20393;-67
2022/12/25 18:01:42;;;;;;;;;;;;;;;;;;5032451;28;20007;-67
2022/12/25 18:04:08;;;;;;;;;;;;;;;;;;5032558;28;20023;-67
2022/12/25 18:06:34;;;;;;;;;;;;;;;;;;5031966;28;20329;-67
2022/12/25 18:09:00;;;;;;;;;;;;;;;;;;5032164;28;19913;-67
2022/12/25 18:11:32;;;;;;;;;;;;;;;;;;5032577;28;19996;-68
2022/12/25 18:13:58;;;;;;;;;;;;;;;;;;5031747;28;19933;-66
2022/12/25 18:16:24;;;;;;;;;;;;;;;;;;5031937;28;19916;-66
2022/12/25 18:18:50;;;;;;;;;;;;;;;;;;5032402;28;19913;-67